createdAt,value
2023-12-10T00:00:18.001Z,27.42
2023-12-10T00:02:44.677Z,26.42
2023-12-10T00:05:11.557Z,28.17
2023-12-10T00:07:38.330Z,35.75
2023-12-10T00:10:05.124Z,27.42
2023-12-10T00:12:32.260Z,36.25
2023-12-10T00:14:59.126Z,30.00
2023-12-10T00:17:25.964Z,31.10
2023-12-10T00:19:53.367Z,26.98
2023-12-10T00:22:20.074Z,25.88
2023-12-10T00:24:46.725Z,20.27
2023-12-10T00:27:13.355Z,27.13
2023-12-10T00:29:39.886Z,28.75
2023-12-10T00:32:06.616Z,19.85
2023-12-10T00:34:33.703Z,24.77
2023-12-10T00:37:00.561Z,21.20
2023-12-10T00:39:27.171Z,30.05
2023-12-10T00:41:53.833Z,22.52
2023-12-10T00:44:20.383Z,25.02
2023-12-10T00:46:47.043Z,25.45
2023-12-10T00:49:13.724Z,23.25
2023-12-10T00:51:40.464Z,26.73
2023-12-10T00:54:07.647Z,19.95
2023-12-10T00:56:35.166Z,23.88
2023-12-10T00:59:02.014Z,23.83
2023-12-10T01:01:28.669Z,21.88
2023-12-10T01:03:55.813Z,13.98
2023-12-10T01:06:22.743Z,20.35
2023-12-10T01:08:49.437Z,26.88
2023-12-10T01:11:16.114Z,20.73
2023-12-10T01:13:42.837Z,18.77
2023-12-10T01:16:09.506Z,22.60
2023-12-10T01:18:38.626Z,22.90
2023-12-10T01:21:05.927Z,14.45
2023-12-10T01:23:32.533Z,19.08
2023-12-10T01:25:59.162Z,27.02
2023-12-10T01:28:26.148Z,37.00
2023-12-10T01:30:52.845Z,19.58
2023-12-10T01:33:19.751Z,24.00
2023-12-10T01:35:46.572Z,20.00
2023-12-10T01:38:13.375Z,19.50
2023-12-10T01:40:39.966Z,22.95
2023-12-10T01:43:07.215Z,20.17
2023-12-10T01:45:34.361Z,19.35
2023-12-10T01:48:04.083Z,31.90
2023-12-10T01:50:31.709Z,25.67
2023-12-10T01:52:59.387Z,25.13
2023-12-10T01:55:26.301Z,24.13
2023-12-10T01:57:53.519Z,19.50
2023-12-10T02:00:20.282Z,26.52
2023-12-10T02:02:47.363Z,24.13
2023-12-10T02:05:14.117Z,17.50
2023-12-10T02:07:43.122Z,23.83
2023-12-10T02:10:10.845Z,16.83
2023-12-10T02:12:37.561Z,25.30
2023-12-10T02:15:14.710Z,14.95
2023-12-10T02:17:42.065Z,21.08
2023-12-10T02:20:11.216Z,31.50
2023-12-10T02:22:38.790Z,17.02
2023-12-10T02:25:08.866Z,20.63
2023-12-10T02:27:35.506Z,25.45
2023-12-10T02:30:02.125Z,21.33
2023-12-10T02:32:29.383Z,23.50
2023-12-10T02:34:56.260Z,17.92
2023-12-10T02:37:22.804Z,21.25
2023-12-10T02:39:49.698Z,19.33
2023-12-10T02:42:17.262Z,20.00
2023-12-10T02:44:43.846Z,19.90
2023-12-10T02:47:10.568Z,19.35
2023-12-10T02:49:37.318Z,14.93
2023-12-10T02:52:04.097Z,29.58
2023-12-10T02:54:30.642Z,21.35
2023-12-10T02:56:57.298Z,30.33
2023-12-10T02:59:24.246Z,26.80
2023-12-10T03:01:50.949Z,16.25
2023-12-10T03:04:17.675Z,14.88
2023-12-10T03:06:44.425Z,18.38
2023-12-10T03:09:11.360Z,22.08
2023-12-10T03:11:38.025Z,20.52
2023-12-10T03:14:05.603Z,18.05
2023-12-10T03:16:32.256Z,24.60
2023-12-10T03:18:58.945Z,22.27
2023-12-10T03:21:25.798Z,21.58
2023-12-10T03:23:52.344Z,14.50
2023-12-10T03:26:19.094Z,16.75
2023-12-10T03:28:45.751Z,15.40
2023-12-10T03:31:12.431Z,28.63
2023-12-10T03:33:39.222Z,26.55
2023-12-10T03:36:06.016Z,19.25
2023-12-10T03:38:32.762Z,31.23
2023-12-10T03:40:59.371Z,13.55
2023-12-10T03:43:26.232Z,24.73
2023-12-10T03:45:52.869Z,26.98
2023-12-10T03:48:19.586Z,13.95
2023-12-10T03:50:46.663Z,24.20
2023-12-10T03:53:13.380Z,22.52
2023-12-10T03:55:39.978Z,22.17
2023-12-10T03:58:06.579Z,25.52
2023-12-10T04:00:33.561Z,15.90
2023-12-10T04:03:00.291Z,20.52
2023-12-10T04:05:27.059Z,26.73
2023-12-10T04:07:53.864Z,23.10
2023-12-10T04:10:20.759Z,28.88
2023-12-10T04:12:47.471Z,20.60
2023-12-10T04:15:14.155Z,16.40
2023-12-10T04:17:40.981Z,25.30
2023-12-10T04:20:08.114Z,25.42
2023-12-10T04:22:34.721Z,22.00
2023-12-10T04:25:01.369Z,21.38
2023-12-10T04:27:28.086Z,21.98
2023-12-10T04:29:54.902Z,22.30
2023-12-10T04:32:21.514Z,19.60
2023-12-10T04:34:48.178Z,22.48
2023-12-10T04:37:14.835Z,15.00
2023-12-10T04:39:41.412Z,21.33
2023-12-10T04:42:08.026Z,12.43
2023-12-10T04:44:34.562Z,10.00
2023-12-10T04:47:01.114Z,15.80
2023-12-10T04:49:27.726Z,21.10
2023-12-10T04:51:54.414Z,22.67
2023-12-10T04:54:21.100Z,18.33
2023-12-10T04:56:47.738Z,12.35
2023-12-10T04:59:14.273Z,27.58
2023-12-10T05:01:40.962Z,13.13
2023-12-10T05:04:07.765Z,15.85
2023-12-10T05:06:34.511Z,13.60
2023-12-10T05:09:03.972Z,19.42
2023-12-10T05:11:30.933Z,16.77
2023-12-10T05:13:57.685Z,24.63
2023-12-10T05:16:24.246Z,14.63
2023-12-10T05:18:51.078Z,18.45
2023-12-10T05:21:17.783Z,15.63
2023-12-10T05:23:44.325Z,19.08
2023-12-10T05:26:10.988Z,16.63
2023-12-10T05:28:37.780Z,33.08
2023-12-10T05:31:06.658Z,22.02
2023-12-10T05:33:35.021Z,17.90
2023-12-10T05:36:01.724Z,30.02
2023-12-10T05:38:28.415Z,18.55
2023-12-10T05:40:54.936Z,13.63
2023-12-10T05:43:21.467Z,21.05
2023-12-10T05:45:48.185Z,15.10
2023-12-10T05:48:14.960Z,27.80
2023-12-10T05:50:41.603Z,16.77
2023-12-10T05:53:08.161Z,17.95
2023-12-10T05:55:34.886Z,20.10
2023-12-10T05:58:01.448Z,24.92
2023-12-10T06:00:28.159Z,14.55
2023-12-10T06:02:54.735Z,18.60
2023-12-10T06:05:21.399Z,12.15
2023-12-10T06:07:48.173Z,26.83
2023-12-10T06:10:14.937Z,18.55
2023-12-10T06:12:42.194Z,22.73
2023-12-10T06:15:09.265Z,21.67
2023-12-10T06:17:36.096Z,20.30
2023-12-10T06:20:02.681Z,14.27
2023-12-10T06:22:29.795Z,14.70
2023-12-10T06:24:56.701Z,16.63
2023-12-10T06:27:23.564Z,17.67
2023-12-10T06:29:50.201Z,18.83
2023-12-10T06:32:16.833Z,16.60
2023-12-10T06:34:43.701Z,16.17
2023-12-10T06:37:10.533Z,8.10
2023-12-10T06:39:37.107Z,17.02
2023-12-10T06:42:03.918Z,22.10
2023-12-10T06:44:31.084Z,20.15
2023-12-10T06:46:57.850Z,16.65
2023-12-10T06:49:24.577Z,22.95
2023-12-10T06:51:51.306Z,18.90
2023-12-10T06:54:17.985Z,8.88
2023-12-10T06:56:44.703Z,23.90
2023-12-10T06:59:11.340Z,14.55
2023-12-10T07:01:41.224Z,11.75
2023-12-10T07:04:08.462Z,14.55
2023-12-10T07:06:35.807Z,15.10
2023-12-10T07:09:02.554Z,24.77
2023-12-10T07:11:29.291Z,10.38
2023-12-10T07:13:56.214Z,13.65
2023-12-10T07:16:22.944Z,13.88
2023-12-10T07:18:49.698Z,14.40
2023-12-10T07:21:16.444Z,16.60
2023-12-10T07:23:43.351Z,17.25
2023-12-10T07:26:10.585Z,15.52
2023-12-10T07:28:37.348Z,16.73
2023-12-10T07:31:04.190Z,15.85
2023-12-10T07:33:30.922Z,25.10
2023-12-10T07:35:59.009Z,22.48
2023-12-10T07:38:25.610Z,12.23
2023-12-10T07:40:52.310Z,13.18
2023-12-10T07:43:19.519Z,13.02
2023-12-10T07:45:46.121Z,12.30
2023-12-10T07:48:13.012Z,17.08
2023-12-10T07:50:40.716Z,15.60
2023-12-10T07:53:07.402Z,13.55
2023-12-10T07:55:34.095Z,25.85
2023-12-10T07:58:00.798Z,27.05
2023-12-10T08:00:28.142Z,23.00
2023-12-10T08:02:54.778Z,21.77
2023-12-10T08:05:21.727Z,20.92
2023-12-10T08:07:48.272Z,13.27
2023-12-10T08:10:15.011Z,19.58
2023-12-10T08:12:42.338Z,23.02
2023-12-10T08:15:09.293Z,29.08
2023-12-10T08:17:35.977Z,18.08
2023-12-10T08:20:04.023Z,15.70
2023-12-10T08:22:30.973Z,13.40
2023-12-10T08:24:57.802Z,19.48
2023-12-10T08:27:24.514Z,16.98
2023-12-10T08:29:51.084Z,21.15
2023-12-10T08:32:17.745Z,23.05
2023-12-10T08:34:44.475Z,25.58
2023-12-10T08:37:11.094Z,20.63
2023-12-10T08:39:37.674Z,11.38
2023-12-10T08:42:04.468Z,17.02
2023-12-10T08:44:31.276Z,20.67
2023-12-10T08:46:57.843Z,16.35
2023-12-10T08:49:24.559Z,19.98
2023-12-10T08:51:51.285Z,24.85
2023-12-10T08:54:18.347Z,15.77
2023-12-10T08:56:45.662Z,17.38
2023-12-10T08:59:12.439Z,17.92
2023-12-10T09:01:39.237Z,22.95
2023-12-10T09:04:07.035Z,15.85
2023-12-10T09:06:33.865Z,15.77
2023-12-10T09:09:00.494Z,21.00
2023-12-10T09:11:27.134Z,19.15
2023-12-10T09:13:53.793Z,20.85
2023-12-10T09:16:24.227Z,18.42
2023-12-10T09:18:51.056Z,19.30
2023-12-10T09:21:17.799Z,17.67
2023-12-10T09:23:44.992Z,24.08
2023-12-10T09:26:11.681Z,16.90
2023-12-10T09:28:38.778Z,22.17
2023-12-10T09:31:05.403Z,23.70
2023-12-10T09:33:32.609Z,21.88
2023-12-10T09:35:59.377Z,14.20
2023-12-10T09:38:25.982Z,20.98
2023-12-10T09:40:52.595Z,17.45
2023-12-10T09:43:19.386Z,18.90
2023-12-10T09:45:45.989Z,16.25
2023-12-10T09:48:12.835Z,20.90
2023-12-10T09:50:41.697Z,19.83
2023-12-10T09:53:08.546Z,20.50
2023-12-10T09:55:36.847Z,20.25
2023-12-10T09:58:04.235Z,13.52
2023-12-10T10:00:31.033Z,14.38
2023-12-10T10:03:01.428Z,16.05
2023-12-10T10:05:28.167Z,13.95
2023-12-10T10:07:54.943Z,17.58
2023-12-10T10:10:23.350Z,23.80
2023-12-10T10:12:50.199Z,18.02
2023-12-10T10:15:25.164Z,16.60
2023-12-10T10:17:51.991Z,18.52
2023-12-10T10:20:19.281Z,20.85
2023-12-10T10:22:47.140Z,16.48
2023-12-10T10:25:13.969Z,17.73
2023-12-10T10:27:40.553Z,21.02
2023-12-10T10:30:07.497Z,20.20
2023-12-10T10:32:34.463Z,24.58
2023-12-10T10:35:05.174Z,20.52
2023-12-10T10:37:32.026Z,18.98
2023-12-10T10:39:58.881Z,23.30
2023-12-10T10:42:25.588Z,28.90
2023-12-10T10:44:52.374Z,20.08
2023-12-10T10:47:19.914Z,23.33
2023-12-10T10:50:19.054Z,17.45
2023-12-10T10:52:36.511Z,20.23
2023-12-10T10:55:03.432Z,23.30
2023-12-10T10:57:36.097Z,21.88
2023-12-10T11:00:18.370Z,28.27
2023-12-10T11:02:49.114Z,16.00
2023-12-10T11:05:22.003Z,31.63
2023-12-10T11:07:49.209Z,23.30
2023-12-10T11:10:16.002Z,19.58
2023-12-10T11:12:50.278Z,21.05
2023-12-10T11:15:17.584Z,16.98
2023-12-10T11:18:01.425Z,25.45
2023-12-10T11:20:34.694Z,19.70
2023-12-10T11:23:03.018Z,16.67
2023-12-10T11:25:29.858Z,14.02
2023-12-10T11:27:58.460Z,17.15
2023-12-10T11:30:25.623Z,22.45
2023-12-10T11:32:52.387Z,16.30
2023-12-10T11:35:19.382Z,16.52
2023-12-10T11:37:46.135Z,15.13
2023-12-10T11:40:12.876Z,20.85
2023-12-10T11:42:39.648Z,12.68
2023-12-10T11:45:06.685Z,19.98
2023-12-10T11:47:33.823Z,20.10
2023-12-10T11:50:03.543Z,22.75
2023-12-10T11:52:30.376Z,18.15
2023-12-10T11:54:57.172Z,22.08
2023-12-10T11:57:23.778Z,22.77
2023-12-10T11:59:52.022Z,21.52
2023-12-10T12:02:18.938Z,20.25
2023-12-10T12:04:45.576Z,23.15
2023-12-10T12:07:25.799Z,21.20
2023-12-10T12:09:55.819Z,22.30
2023-12-10T12:12:22.848Z,18.90
2023-12-10T12:14:50.203Z,20.85
2023-12-10T12:17:17.019Z,25.70
2023-12-10T12:19:43.680Z,22.98
2023-12-10T12:22:11.643Z,29.40
2023-12-10T12:24:41.982Z,33.28
2023-12-10T12:27:08.809Z,27.00
2023-12-10T12:29:36.170Z,19.10
2023-12-10T12:32:18.739Z,21.00
2023-12-10T12:34:50.187Z,24.08
2023-12-10T12:37:16.726Z,17.55
2023-12-10T12:39:43.283Z,36.90
2023-12-10T12:42:09.968Z,26.90
2023-12-10T12:44:37.796Z,33.40
2023-12-10T12:47:05.056Z,24.27
2023-12-10T12:49:32.081Z,19.52
2023-12-10T12:51:58.807Z,36.90
2023-12-10T12:54:25.465Z,28.38
2023-12-10T12:56:52.077Z,34.92
2023-12-10T12:59:18.685Z,37.80
2023-12-10T13:01:45.802Z,38.35
2023-12-10T13:04:12.591Z,38.70
2023-12-10T13:06:39.422Z,29.52
2023-12-10T13:09:06.029Z,23.80
2023-12-10T13:11:32.779Z,26.63
2023-12-10T13:13:59.529Z,28.25
2023-12-10T13:16:26.087Z,23.73
2023-12-10T13:18:52.724Z,27.63
2023-12-10T13:21:22.038Z,27.00
2023-12-10T13:23:50.325Z,38.15
2023-12-10T13:26:17.099Z,26.83
2023-12-10T13:28:43.942Z,23.05
2023-12-10T13:31:11.655Z,35.80
2023-12-10T13:33:38.640Z,37.78
2023-12-10T13:36:05.489Z,32.67
2023-12-10T13:38:32.629Z,30.85
2023-12-10T13:40:59.286Z,31.90
2023-12-10T13:43:25.960Z,33.38
2023-12-10T13:45:52.543Z,23.83
2023-12-10T13:48:19.556Z,42.65
2023-12-10T13:50:46.245Z,26.48
2023-12-10T13:53:13.041Z,37.53
2023-12-10T13:55:40.663Z,37.60
2023-12-10T13:58:07.292Z,26.70
2023-12-10T14:00:34.180Z,32.20
2023-12-10T14:03:00.792Z,28.35
2023-12-10T14:05:27.405Z,31.13
2023-12-10T14:07:54.209Z,37.60
2023-12-10T14:10:21.745Z,37.40
2023-12-10T14:12:48.628Z,37.30
2023-12-10T14:15:16.393Z,33.70
2023-12-10T14:17:43.419Z,36.92
2023-12-10T14:20:11.331Z,39.17
2023-12-10T14:22:38.883Z,32.75
2023-12-10T14:25:06.480Z,35.17
2023-12-10T14:27:33.629Z,31.77
2023-12-10T14:30:00.581Z,40.17
2023-12-10T14:32:27.817Z,25.50
2023-12-10T14:34:54.685Z,26.38
2023-12-10T14:37:21.491Z,29.30
2023-12-10T14:39:48.128Z,20.92
2023-12-10T14:42:15.286Z,36.00
2023-12-10T14:44:41.993Z,24.02
2023-12-10T14:47:08.699Z,22.98
2023-12-10T14:49:35.635Z,19.50
2023-12-10T14:52:02.468Z,24.85
2023-12-10T14:54:29.129Z,20.08
2023-12-10T14:56:55.913Z,30.40
2023-12-10T14:59:22.568Z,24.80
2023-12-10T15:01:58.944Z,21.40
2023-12-10T15:04:32.965Z,37.25
2023-12-10T15:06:59.896Z,18.83
2023-12-10T15:09:26.856Z,25.00
2023-12-10T15:11:53.567Z,31.92
2023-12-10T15:14:20.274Z,21.45
2023-12-10T15:16:46.875Z,20.27
2023-12-10T15:19:13.792Z,24.13
2023-12-10T15:21:40.434Z,16.42
2023-12-10T15:24:07.275Z,21.80
2023-12-10T15:26:34.092Z,19.42
2023-12-10T15:29:00.854Z,15.30
2023-12-10T15:31:27.677Z,23.58
2023-12-10T15:33:54.528Z,27.67
2023-12-10T15:36:23.204Z,16.98
2023-12-10T15:38:50.076Z,18.27
2023-12-10T15:41:17.191Z,16.98
2023-12-10T15:43:44.211Z,12.20
2023-12-10T15:46:11.071Z,25.00
2023-12-10T15:48:37.894Z,30.80
2023-12-10T15:51:05.262Z,15.00
2023-12-10T15:53:31.852Z,22.75
2023-12-10T15:55:58.665Z,16.15
2023-12-10T15:58:25.283Z,20.17
2023-12-10T16:00:54.604Z,20.05
2023-12-10T16:03:23.545Z,20.67
2023-12-10T16:05:51.403Z,12.68
2023-12-10T16:08:19.084Z,21.63
2023-12-10T16:10:45.806Z,20.27
2023-12-10T16:13:16.607Z,23.08
2023-12-10T16:15:45.936Z,16.65
2023-12-10T16:18:12.758Z,22.98
2023-12-10T16:20:39.974Z,26.33
2023-12-10T16:23:06.616Z,20.05
2023-12-10T16:25:33.237Z,22.42
2023-12-10T16:28:00.325Z,29.23
2023-12-10T16:30:27.104Z,20.13
2023-12-10T16:32:54.480Z,22.63
2023-12-10T16:35:21.190Z,28.67
2023-12-10T16:37:47.717Z,16.58
2023-12-10T16:40:17.409Z,15.45
2023-12-10T16:42:44.315Z,19.67
2023-12-10T16:45:11.270Z,37.45
2023-12-10T16:47:38.946Z,35.63
2023-12-10T16:50:06.787Z,21.92
2023-12-10T16:52:33.742Z,18.05
2023-12-10T16:55:00.704Z,11.77
2023-12-10T16:57:27.962Z,23.55
2023-12-10T16:59:55.681Z,23.88
2023-12-10T17:02:23.490Z,15.25
2023-12-10T17:04:50.483Z,16.55
2023-12-10T17:07:17.362Z,18.95
2023-12-10T17:09:43.991Z,19.55
2023-12-10T17:12:10.818Z,20.95
2023-12-10T17:14:37.617Z,24.13
2023-12-10T17:17:04.347Z,23.05
2023-12-10T17:19:31.586Z,18.05
2023-12-10T17:21:59.881Z,19.45
2023-12-10T17:24:26.753Z,23.55
2023-12-10T17:26:53.486Z,27.30
2023-12-10T17:29:20.295Z,19.55
2023-12-10T17:31:47.104Z,29.33
2023-12-10T17:34:14.350Z,24.75
2023-12-10T17:36:41.240Z,11.00
2023-12-10T17:39:09.335Z,21.50
2023-12-10T17:41:37.981Z,15.73
2023-12-10T17:44:04.841Z,14.57
2023-12-10T17:46:31.599Z,11.95
2023-12-10T17:48:58.313Z,17.80
2023-12-10T17:51:27.367Z,16.25
2023-12-10T17:53:54.228Z,13.43
2023-12-10T17:56:20.884Z,9.45
2023-12-10T17:58:47.492Z,8.75
2023-12-10T18:01:14.286Z,15.77
2023-12-10T18:03:40.971Z,10.35
2023-12-10T18:06:07.621Z,10.02
2023-12-10T18:08:34.343Z,9.65
2023-12-10T18:11:01.930Z,4.25
2023-12-10T18:13:28.686Z,12.55
2023-12-10T18:15:56.194Z,8.73
2023-12-10T18:18:22.881Z,10.27
2023-12-10T18:20:49.505Z,9.05
2023-12-10T18:23:16.234Z,12.65
2023-12-10T18:25:43.181Z,8.60
2023-12-10T18:28:09.889Z,10.10
2023-12-10T18:30:36.738Z,5.10
2023-12-10T18:33:03.822Z,7.25
2023-12-10T18:35:30.695Z,5.50
2023-12-10T18:37:57.338Z,6.13
2023-12-10T18:40:29.016Z,5.40
2023-12-10T18:43:00.807Z,5.78
2023-12-10T18:45:27.692Z,9.05
2023-12-10T18:47:54.262Z,5.75
2023-12-10T18:50:20.910Z,10.63
2023-12-10T18:52:47.516Z,10.02
2023-12-10T18:55:14.561Z,11.63
2023-12-10T18:57:41.176Z,6.82
2023-12-10T19:00:16.553Z,12.52
2023-12-10T19:02:43.279Z,10.98
2023-12-10T19:05:10.066Z,10.52
2023-12-10T19:07:37.153Z,21.80
2023-12-10T19:10:03.965Z,8.90
2023-12-10T19:12:31.054Z,11.50
2023-12-10T19:14:57.986Z,10.40
2023-12-10T19:17:24.797Z,13.82
2023-12-10T19:19:51.715Z,8.13
2023-12-10T19:22:18.354Z,13.30
2023-12-10T19:24:45.604Z,11.93
2023-12-10T19:27:12.711Z,9.75
2023-12-10T19:29:39.520Z,13.52
2023-12-10T19:32:07.994Z,16.10
2023-12-10T19:34:35.041Z,22.02
2023-12-10T19:37:01.901Z,18.10
2023-12-10T19:39:28.710Z,13.13
2023-12-10T19:41:55.827Z,13.68
2023-12-10T19:44:22.608Z,13.30
2023-12-10T19:46:49.391Z,18.00
2023-12-10T19:49:17.911Z,20.88
2023-12-10T19:51:44.753Z,20.60
2023-12-10T19:54:11.536Z,15.95
2023-12-10T19:56:38.286Z,19.13
2023-12-10T19:59:07.432Z,15.30
2023-12-10T20:01:34.156Z,15.70
2023-12-10T20:04:03.836Z,15.80
2023-12-10T20:06:30.806Z,16.55
2023-12-10T20:08:57.546Z,15.90
2023-12-10T20:11:24.279Z,25.55
2023-12-10T20:13:51.390Z,26.42
2023-12-10T20:16:18.402Z,21.05
2023-12-10T20:18:45.519Z,26.27
2023-12-10T20:21:12.392Z,23.15
2023-12-10T20:23:39.034Z,23.60
2023-12-10T20:26:05.857Z,24.77
2023-12-10T20:28:32.616Z,25.77
2023-12-10T20:30:59.478Z,22.50
2023-12-10T20:33:27.191Z,22.33
2023-12-10T20:35:54.026Z,16.45
2023-12-10T20:38:20.621Z,12.93
2023-12-10T20:40:49.912Z,21.40
2023-12-10T20:43:18.493Z,17.73
2023-12-10T20:45:46.235Z,19.88
2023-12-10T20:48:13.143Z,23.35
2023-12-10T20:50:39.974Z,29.23
2023-12-10T20:53:06.951Z,20.65
2023-12-10T20:55:33.646Z,21.10
2023-12-10T20:58:00.266Z,27.42
2023-12-10T21:00:27.393Z,25.08
2023-12-10T21:02:54.587Z,17.85
2023-12-10T21:05:23.278Z,24.58
2023-12-10T21:07:50.290Z,31.52
2023-12-10T21:10:17.225Z,15.48
2023-12-10T21:12:43.991Z,23.15
2023-12-10T21:15:11.051Z,28.98
2023-12-10T21:17:38.485Z,28.52
2023-12-10T21:20:05.922Z,29.50
2023-12-10T21:22:33.106Z,37.22
2023-12-10T21:24:59.939Z,28.35
2023-12-10T21:27:26.922Z,36.50
2023-12-10T21:29:53.961Z,25.35
2023-12-10T21:32:21.237Z,32.33
2023-12-10T21:34:48.493Z,29.70
2023-12-10T21:37:15.189Z,41.08
2023-12-10T21:39:41.990Z,24.70
2023-12-10T21:42:08.733Z,26.88
2023-12-10T21:44:35.392Z,29.58
2023-12-10T21:47:01.989Z,28.38
2023-12-10T21:49:28.888Z,35.50
2023-12-10T21:51:56.309Z,33.15
2023-12-10T21:54:26.019Z,24.02
2023-12-10T21:56:54.067Z,27.55
2023-12-10T21:59:20.922Z,30.23
2023-12-10T22:01:47.911Z,26.35
2023-12-10T22:04:14.716Z,35.30
2023-12-10T22:06:41.500Z,28.20
2023-12-10T22:09:08.785Z,28.98
2023-12-10T22:11:38.286Z,24.35
2023-12-10T22:14:04.957Z,40.47
2023-12-10T22:16:31.747Z,33.20
2023-12-10T22:18:58.614Z,33.47
2023-12-10T22:21:25.344Z,25.88
2023-12-10T22:23:52.086Z,43.80
2023-12-10T22:26:19.096Z,36.60
2023-12-10T22:28:45.706Z,44.20
2023-12-10T22:31:12.550Z,45.60
2023-12-10T22:33:41.703Z,44.63
2023-12-10T22:36:10.078Z,42.30
2023-12-10T22:38:40.938Z,38.05
2023-12-10T22:41:07.962Z,37.53
2023-12-10T22:43:34.818Z,42.38
2023-12-10T22:46:01.588Z,45.20
2023-12-10T22:48:28.562Z,38.28
2023-12-10T22:50:56.508Z,34.78
2023-12-10T22:53:23.378Z,47.75
2023-12-10T22:55:50.178Z,39.03
2023-12-10T22:58:17.020Z,33.78
2023-12-10T23:00:44.396Z,32.30
2023-12-10T23:03:11.281Z,41.53
2023-12-10T23:05:37.994Z,32.17
2023-12-10T23:08:04.607Z,34.28
2023-12-10T23:10:31.357Z,39.35
2023-12-10T23:12:58.145Z,38.03
2023-12-10T23:15:25.273Z,38.42
2023-12-10T23:17:51.963Z,41.95
2023-12-10T23:20:18.592Z,43.78
2023-12-10T23:22:45.352Z,48.72
2023-12-10T23:25:13.511Z,37.53
2023-12-10T23:27:42.362Z,30.67
2023-12-10T23:30:09.380Z,41.97
2023-12-10T23:32:36.135Z,48.50
2023-12-10T23:35:02.790Z,32.47
2023-12-10T23:37:29.920Z,38.70
2023-12-10T23:39:56.938Z,38.20
2023-12-10T23:42:23.650Z,28.10
2023-12-10T23:44:50.275Z,46.88
2023-12-10T23:47:16.966Z,33.47
2023-12-10T23:49:44.027Z,42.83
2023-12-10T23:52:11.003Z,53.55
2023-12-10T23:54:40.628Z,41.67
2023-12-10T23:57:08.472Z,43.55
2023-12-10T23:59:35.658Z,34.50
